createdAt,value
2023-09-27T00:00:29.846Z,16.30
2023-09-27T00:02:59.134Z,16.20
2023-09-27T00:05:27.521Z,16.20
2023-09-27T00:07:57.481Z,16.10
2023-09-27T00:10:25.682Z,16.10
2023-09-27T00:12:53.665Z,16.10
2023-09-27T00:15:21.610Z,16.10
2023-09-27T00:17:49.615Z,16.10
2023-09-27T00:20:18.712Z,16.00
2023-09-27T00:22:46.766Z,16.00
2023-09-27T00:25:16.271Z,15.90
2023-09-27T00:27:44.246Z,15.90
2023-09-27T00:30:15.125Z,15.90
2023-09-27T00:32:43.341Z,15.80
2023-09-27T00:35:15.624Z,15.80
2023-09-27T00:37:43.712Z,15.80
2023-09-27T00:40:16.278Z,15.80
2023-09-27T00:42:44.319Z,15.80
2023-09-27T00:45:12.448Z,15.70
2023-09-27T00:47:41.338Z,15.70
2023-09-27T00:50:10.929Z,15.70
2023-09-27T00:52:41.691Z,15.60
2023-09-27T00:55:12.551Z,15.60
2023-09-27T00:57:42.869Z,15.60
2023-09-27T01:00:12.566Z,15.60
2023-09-27T01:02:41.945Z,15.60
2023-09-27T01:05:11.316Z,15.50
2023-09-27T01:07:41.464Z,15.50
2023-09-27T01:10:11.048Z,15.50
2023-09-27T01:12:40.324Z,15.40
2023-09-27T01:15:10.592Z,15.40
2023-09-27T01:17:39.271Z,15.40
2023-09-27T01:20:10.643Z,15.40
2023-09-27T01:22:39.582Z,15.30
2023-09-27T01:25:13.425Z,15.30
2023-09-27T01:27:42.673Z,15.30
2023-09-27T01:30:11.238Z,15.30
2023-09-27T01:32:40.511Z,15.30
2023-09-27T01:35:09.806Z,15.20
2023-09-27T01:37:39.554Z,15.20
2023-09-27T01:40:11.807Z,15.20
2023-09-27T01:42:44.618Z,15.20
2023-09-27T01:45:14.609Z,15.20
2023-09-27T01:47:42.731Z,15.20
2023-09-27T01:50:11.492Z,15.10
2023-09-27T01:52:40.617Z,15.10
2023-09-27T01:55:10.428Z,15.10
2023-09-27T01:57:39.901Z,15.00
2023-09-27T02:00:12.491Z,15.00
2023-09-27T02:02:41.183Z,15.00
2023-09-27T02:05:10.248Z,15.00
2023-09-27T02:07:39.274Z,14.90
2023-09-27T02:10:09.573Z,14.90
2023-09-27T02:12:39.091Z,14.90
2023-09-27T02:15:07.860Z,14.80
2023-09-27T02:17:36.555Z,14.80
2023-09-27T02:20:07.562Z,14.80
2023-09-27T02:22:35.667Z,14.70
2023-09-27T02:25:03.803Z,14.70
2023-09-27T02:27:33.114Z,14.70
2023-09-27T02:30:01.807Z,14.60
2023-09-27T02:32:30.487Z,14.60
2023-09-27T02:34:58.655Z,14.60
2023-09-27T02:37:26.778Z,14.60
2023-09-27T02:39:54.651Z,14.60
2023-09-27T02:42:22.537Z,14.60
2023-09-27T02:44:51.882Z,14.60
2023-09-27T02:47:19.853Z,14.60
2023-09-27T02:49:47.821Z,14.60
2023-09-27T02:52:15.746Z,14.60
2023-09-27T02:54:46.572Z,14.60
2023-09-27T02:57:14.709Z,14.60
2023-09-27T02:59:42.827Z,14.60
2023-09-27T03:02:12.143Z,14.60
2023-09-27T03:04:41.923Z,14.60
2023-09-27T03:07:10.594Z,14.60
2023-09-27T03:09:38.625Z,14.70
2023-09-27T03:12:07.804Z,14.70
2023-09-27T03:14:35.740Z,14.70
2023-09-27T03:17:04.120Z,14.70
2023-09-27T03:19:33.629Z,14.70
2023-09-27T03:22:02.343Z,14.70
2023-09-27T03:24:31.215Z,14.70
2023-09-27T03:26:59.197Z,14.70
2023-09-27T03:29:27.158Z,14.70
2023-09-27T03:31:55.369Z,14.70
2023-09-27T03:34:23.527Z,14.80
2023-09-27T03:36:57.063Z,14.80
2023-09-27T03:39:25.224Z,14.80
2023-09-27T03:41:53.195Z,14.80
2023-09-27T03:44:21.180Z,14.80
2023-09-27T03:46:49.138Z,14.70
2023-09-27T03:49:17.216Z,14.70
2023-09-27T03:51:45.313Z,14.70
2023-09-27T03:54:14.573Z,14.70
2023-09-27T03:56:42.494Z,14.70
2023-09-27T03:59:10.534Z,14.70
2023-09-27T04:01:38.523Z,14.90
2023-09-27T04:04:06.487Z,14.70
2023-09-27T04:06:34.397Z,14.70
2023-09-27T04:09:02.249Z,14.70
2023-09-27T04:11:33.092Z,14.70
2023-09-27T04:14:01.070Z,14.70
2023-09-27T04:16:29.375Z,14.70
2023-09-27T04:18:57.358Z,14.70
2023-09-27T04:21:25.388Z,14.70
2023-09-27T04:23:56.608Z,14.70
2023-09-27T04:26:25.076Z,14.70
2023-09-27T04:28:55.476Z,14.70
2023-09-27T04:31:23.902Z,14.70
2023-09-27T04:33:52.479Z,14.70
2023-09-27T04:36:20.401Z,14.70
2023-09-27T04:38:50.274Z,14.70
2023-09-27T04:41:19.446Z,14.70
2023-09-27T04:43:47.381Z,14.70
2023-09-27T04:46:17.565Z,14.60
2023-09-27T04:48:45.631Z,14.70
2023-09-27T04:51:13.745Z,14.70
2023-09-27T04:53:41.775Z,14.70
2023-09-27T04:56:12.441Z,14.70
2023-09-27T04:58:41.099Z,14.70
2023-09-27T05:01:10.180Z,14.70
2023-09-27T05:03:39.977Z,14.60
2023-09-27T05:06:08.118Z,14.70
2023-09-27T05:08:36.519Z,14.70
2023-09-27T05:11:04.555Z,14.70
2023-09-27T05:13:32.519Z,14.70
2023-09-27T05:16:00.451Z,14.60
2023-09-27T05:18:28.653Z,14.60
2023-09-27T05:21:00.973Z,14.60
2023-09-27T05:23:28.937Z,14.60
2023-09-27T05:25:56.869Z,14.60
2023-09-27T05:28:24.975Z,14.60
2023-09-27T05:30:53.921Z,14.60
2023-09-27T05:33:21.940Z,14.60
2023-09-27T05:35:51.369Z,14.60
2023-09-27T05:38:21.609Z,14.60
2023-09-27T05:40:50.101Z,14.60
2023-09-27T05:43:18.148Z,14.60
2023-09-27T05:45:46.113Z,14.60
2023-09-27T05:48:15.290Z,14.60
2023-09-27T05:50:45.688Z,14.60
2023-09-27T05:53:13.816Z,14.60
2023-09-27T05:55:43.319Z,14.60
2023-09-27T05:58:11.229Z,14.60
2023-09-27T06:00:41.444Z,14.60
2023-09-27T06:03:09.592Z,14.70
2023-09-27T06:05:37.647Z,14.60
2023-09-27T06:08:06.051Z,14.60
2023-09-27T06:10:33.984Z,14.70
2023-09-27T06:13:03.232Z,14.70
2023-09-27T06:15:35.006Z,14.60
2023-09-27T06:18:04.174Z,14.70
2023-09-27T06:20:33.647Z,14.60
2023-09-27T06:23:04.705Z,14.60
2023-09-27T06:25:35.595Z,14.60
2023-09-27T06:28:06.043Z,14.60
2023-09-27T06:30:34.018Z,14.60
2023-09-27T06:33:02.409Z,14.70
2023-09-27T06:35:33.114Z,14.70
2023-09-27T06:38:02.475Z,14.70
2023-09-27T06:40:30.576Z,14.70
2023-09-27T06:42:58.680Z,14.80
2023-09-27T06:45:28.249Z,14.80
2023-09-27T06:47:57.543Z,14.80
2023-09-27T06:50:26.047Z,14.90
2023-09-27T06:53:06.525Z,14.90
2023-09-27T06:55:42.689Z,14.90
2023-09-27T06:58:10.802Z,15.00
2023-09-27T07:00:42.286Z,15.00
2023-09-27T07:03:10.631Z,15.10
2023-09-27T07:05:38.654Z,15.10
2023-09-27T07:08:06.988Z,15.20
2023-09-27T07:10:35.519Z,15.20
2023-09-27T07:13:03.473Z,15.20
2023-09-27T07:15:33.231Z,15.30
2023-09-27T07:18:04.961Z,15.40
2023-09-27T07:20:35.954Z,15.50
2023-09-27T07:23:05.545Z,15.50
2023-09-27T07:25:38.573Z,15.60
2023-09-27T07:28:08.163Z,15.70
2023-09-27T07:30:36.162Z,15.70
2023-09-27T07:33:12.282Z,15.80
2023-09-27T07:35:43.641Z,15.90
2023-09-27T07:38:12.827Z,16.00
2023-09-27T07:40:40.967Z,16.00
2023-09-27T07:43:08.897Z,16.10
2023-09-27T07:45:37.774Z,16.20
2023-09-27T07:48:07.883Z,16.20
2023-09-27T07:50:38.547Z,16.30
2023-09-27T07:53:07.907Z,16.40
2023-09-27T07:55:44.331Z,16.50
2023-09-27T07:58:14.693Z,16.60
2023-09-27T08:00:42.966Z,16.70
2023-09-27T08:03:15.137Z,16.80
2023-09-27T08:05:46.226Z,16.90
2023-09-27T08:08:15.357Z,17.00
2023-09-27T08:10:44.576Z,17.20
2023-09-27T08:13:13.964Z,17.20
2023-09-27T08:15:42.736Z,17.30
2023-09-27T08:18:12.115Z,17.50
2023-09-27T08:20:40.182Z,17.60
2023-09-27T08:23:08.227Z,17.90
2023-09-27T08:25:38.237Z,18.40
2023-09-27T08:28:07.519Z,18.80
2023-09-27T08:30:35.620Z,19.60
2023-09-27T08:33:03.671Z,20.60
2023-09-27T08:35:33.120Z,21.50
2023-09-27T08:38:01.365Z,22.20
2023-09-27T08:40:30.030Z,22.80
2023-09-27T08:42:59.369Z,23.10
2023-09-27T08:45:29.392Z,23.40
2023-09-27T08:47:57.516Z,23.70
2023-09-27T08:50:27.945Z,24.00
2023-09-27T08:52:57.240Z,24.30
2023-09-27T08:55:25.235Z,24.50
2023-09-27T08:57:53.986Z,24.90
2023-09-27T09:00:26.302Z,25.30
2023-09-27T09:03:00.090Z,25.90
2023-09-27T09:05:30.190Z,26.40
2023-09-27T09:08:01.231Z,27.00
2023-09-27T09:10:29.926Z,27.50
2023-09-27T09:13:04.917Z,27.80
2023-09-27T09:15:41.414Z,27.80
2023-09-27T09:18:16.170Z,27.80
2023-09-27T09:20:52.429Z,27.70
2023-09-27T09:23:32.341Z,27.70
2023-09-27T09:26:00.708Z,27.60
2023-09-27T09:28:28.827Z,27.60
2023-09-27T09:30:56.776Z,27.50
2023-09-27T09:33:25.934Z,27.40
2023-09-27T09:35:54.653Z,27.50
2023-09-27T09:38:27.556Z,27.60
2023-09-27T09:40:58.370Z,27.70
2023-09-27T09:43:34.381Z,27.80
2023-09-27T09:46:04.814Z,28.00
2023-09-27T09:48:34.620Z,28.20
2023-09-27T09:51:05.727Z,28.60
2023-09-27T09:53:34.244Z,28.80
2023-09-27T09:58:40.549Z,29.10
2023-09-27T10:01:10.111Z,29.30
2023-09-27T10:03:39.003Z,29.60
2023-09-27T10:06:09.870Z,29.90
2023-09-27T10:08:41.015Z,30.20
2023-09-27T10:11:11.764Z,30.60
2023-09-27T10:13:43.019Z,31.10
2023-09-27T10:16:12.109Z,31.50
2023-09-27T10:18:41.067Z,32.10
2023-09-27T10:21:10.778Z,32.80
2023-09-27T10:23:59.806Z,33.60
2023-09-27T10:26:38.667Z,34.50
2023-09-27T10:29:18.060Z,35.40
2023-09-27T10:32:19.596Z,36.20
2023-09-27T10:34:47.606Z,36.90
2023-09-27T10:37:19.250Z,37.60
2023-09-27T10:40:22.129Z,37.90
2023-09-27T10:42:52.733Z,38.20
2023-09-27T10:45:20.816Z,38.30
2023-09-27T10:47:50.883Z,38.30
2023-09-27T10:50:31.898Z,38.10
2023-09-27T10:53:01.358Z,37.80
2023-09-27T10:55:40.992Z,37.50
2023-09-27T10:58:13.636Z,37.20
2023-09-27T11:00:52.365Z,37.00
2023-09-27T11:03:20.875Z,37.10
2023-09-27T11:05:48.949Z,37.10
2023-09-27T11:08:22.693Z,37.30
2023-09-27T11:10:53.111Z,37.40
2023-09-27T11:13:22.731Z,37.70
2023-09-27T11:15:51.920Z,38.00
2023-09-27T11:18:20.036Z,38.10
2023-09-27T11:20:48.237Z,38.20
2023-09-27T11:23:16.229Z,38.40
2023-09-27T11:25:46.719Z,38.60
2023-09-27T11:28:16.436Z,38.80
2023-09-27T11:30:45.819Z,38.90
2023-09-27T11:33:17.755Z,39.00
2023-09-27T11:35:51.162Z,39.20
2023-09-27T11:38:19.153Z,39.40
2023-09-27T11:40:47.561Z,39.60
2023-09-27T11:43:15.694Z,39.70
2023-09-27T11:45:46.313Z,39.90
2023-09-27T11:48:14.794Z,40.00
2023-09-27T11:50:42.893Z,40.10
2023-09-27T11:53:12.040Z,40.30
2023-09-27T11:55:41.022Z,40.30
2023-09-27T11:58:09.506Z,40.40
2023-09-27T12:00:37.402Z,40.40
2023-09-27T12:03:07.018Z,40.30
2023-09-27T12:05:37.279Z,40.20
2023-09-27T12:08:06.164Z,40.10
2023-09-27T12:10:34.224Z,39.90
2023-09-27T12:13:02.518Z,39.60
2023-09-27T12:15:30.630Z,39.50
2023-09-27T12:17:58.709Z,39.30
2023-09-27T12:20:39.514Z,39.10
2023-09-27T12:23:10.311Z,39.00
2023-09-27T12:25:39.042Z,38.90
2023-09-27T12:28:07.302Z,38.80
2023-09-27T12:30:35.263Z,38.70
2023-09-27T12:33:03.489Z,38.60
2023-09-27T12:35:33.068Z,38.40
2023-09-27T12:38:04.921Z,38.20
2023-09-27T12:40:33.470Z,38.00
2023-09-27T12:43:01.358Z,37.90
2023-09-27T12:45:29.469Z,37.80
2023-09-27T12:47:57.584Z,37.60
2023-09-27T12:50:27.957Z,37.60
2023-09-27T12:52:57.707Z,37.40
2023-09-27T12:55:25.734Z,37.30
2023-09-27T12:57:53.940Z,37.30
2023-09-27T13:00:22.843Z,37.30
2023-09-27T13:02:50.928Z,37.20
2023-09-27T13:05:19.262Z,37.20
2023-09-27T13:07:47.196Z,37.10
2023-09-27T13:10:19.625Z,37.00
2023-09-27T13:12:48.380Z,36.80
2023-09-27T13:15:16.576Z,36.70
2023-09-27T13:17:44.873Z,36.60
2023-09-27T13:20:15.549Z,36.60
2023-09-27T13:22:43.527Z,36.50
2023-09-27T13:25:13.278Z,36.30
2023-09-27T13:27:43.720Z,36.20
2023-09-27T13:30:25.745Z,36.20
2023-09-27T13:33:00.693Z,36.20
2023-09-27T13:35:29.658Z,36.20
2023-09-27T13:37:57.696Z,36.30
2023-09-27T13:40:25.640Z,36.40
2023-09-27T13:42:54.869Z,36.40
2023-09-27T13:45:23.069Z,36.40
2023-09-27T13:47:51.195Z,36.50
2023-09-27T13:50:19.904Z,36.40
2023-09-27T13:52:48.269Z,36.10
2023-09-27T13:55:16.737Z,35.80
2023-09-27T13:57:44.751Z,35.50
2023-09-27T14:00:16.772Z,35.20
2023-09-27T14:02:44.798Z,35.10
2023-09-27T14:05:13.751Z,35.10
2023-09-27T14:07:43.364Z,35.20
2023-09-27T14:10:11.895Z,35.40
2023-09-27T14:12:42.264Z,35.50
2023-09-27T14:15:12.901Z,35.60
2023-09-27T14:17:43.935Z,35.60
2023-09-27T14:20:15.833Z,35.50
2023-09-27T14:22:45.114Z,35.30
2023-09-27T14:25:14.328Z,35.10
2023-09-27T14:27:42.578Z,34.90
2023-09-27T14:30:11.669Z,34.60
2023-09-27T14:32:40.699Z,34.40
2023-09-27T14:35:11.735Z,34.20
2023-09-27T14:37:40.549Z,34.10
2023-09-27T14:40:10.629Z,33.90
2023-09-27T14:42:40.803Z,33.70
2023-09-27T14:45:20.085Z,33.50
2023-09-27T14:47:56.857Z,33.50
2023-09-27T14:50:26.082Z,33.50
2023-09-27T14:52:54.986Z,33.50
2023-09-27T14:55:25.058Z,33.50
2023-09-27T14:57:52.974Z,33.40
2023-09-27T15:00:23.853Z,33.40
2023-09-27T15:02:52.206Z,33.40
2023-09-27T15:05:21.246Z,33.30
2023-09-27T15:07:50.858Z,33.30
2023-09-27T15:10:19.215Z,33.30
2023-09-27T15:12:48.370Z,33.50
2023-09-27T15:15:16.532Z,33.40
2023-09-27T15:17:45.681Z,33.50
2023-09-27T15:20:16.709Z,33.50
2023-09-27T15:22:45.309Z,33.60
2023-09-27T15:25:16.196Z,33.60
2023-09-27T15:27:44.304Z,33.60
2023-09-27T15:30:13.367Z,33.60
2023-09-27T15:32:43.770Z,33.60
2023-09-27T15:35:15.533Z,33.60
2023-09-27T15:37:51.929Z,33.60
2023-09-27T15:40:22.233Z,33.50
2023-09-27T15:42:53.929Z,33.40
2023-09-27T15:45:22.978Z,33.30
2023-09-27T15:47:52.461Z,33.20
2023-09-27T15:50:20.396Z,33.20
2023-09-27T15:52:48.504Z,33.10
2023-09-27T15:55:17.984Z,33.10
2023-09-27T15:57:47.431Z,33.00
2023-09-27T16:00:17.140Z,33.00
2023-09-27T16:02:45.810Z,32.90
2023-09-27T16:05:14.863Z,32.90
2023-09-27T16:07:43.015Z,32.80
2023-09-27T16:10:12.555Z,32.70
2023-09-27T16:12:43.252Z,32.70
2023-09-27T16:15:13.507Z,32.50
2023-09-27T16:17:42.386Z,32.40
2023-09-27T16:20:11.887Z,32.30
2023-09-27T16:22:41.391Z,32.10
2023-09-27T16:25:10.957Z,32.00
2023-09-27T16:27:39.309Z,31.80
2023-09-27T16:30:11.846Z,31.60
2023-09-27T16:32:42.612Z,31.40
2023-09-27T16:35:11.038Z,31.10
2023-09-27T16:37:39.030Z,30.90
2023-09-27T16:40:08.568Z,30.60
2023-09-27T16:42:36.568Z,30.30
2023-09-27T16:45:04.754Z,30.00
2023-09-27T16:47:32.704Z,29.60
2023-09-27T16:50:02.457Z,29.30
2023-09-27T16:52:31.081Z,28.90
2023-09-27T16:55:00.111Z,28.60
2023-09-27T16:57:28.724Z,28.40
2023-09-27T16:59:56.656Z,28.10
2023-09-27T17:02:24.978Z,27.70
2023-09-27T17:04:52.902Z,27.50
2023-09-27T17:07:22.230Z,27.20
2023-09-27T17:09:50.336Z,26.90
2023-09-27T17:12:18.221Z,26.70
2023-09-27T17:14:46.154Z,26.40
2023-09-27T17:17:14.208Z,26.20
2023-09-27T17:19:42.088Z,26.00
2023-09-27T17:22:09.991Z,25.80
2023-09-27T17:24:39.196Z,25.60
2023-09-27T17:27:07.066Z,25.40
2023-09-27T17:29:35.204Z,25.30
2023-09-27T17:32:03.296Z,25.10
2023-09-27T17:34:31.468Z,24.90
2023-09-27T17:36:59.438Z,24.80
2023-09-27T17:39:27.449Z,24.60
2023-09-27T17:41:56.832Z,24.40
2023-09-27T17:44:25.369Z,24.30
2023-09-27T17:46:58.082Z,24.10
2023-09-27T17:49:27.078Z,24.00
2023-09-27T17:51:55.797Z,23.80
2023-09-27T17:54:23.834Z,23.70
2023-09-27T17:56:52.359Z,23.50
2023-09-27T17:59:21.843Z,23.40
2023-09-27T18:01:49.938Z,23.30
2023-09-27T18:04:18.224Z,23.10
2023-09-27T18:06:46.236Z,23.00
2023-09-27T18:09:14.714Z,22.90
2023-09-27T18:11:42.616Z,22.80
2023-09-27T18:14:10.629Z,22.60
2023-09-27T18:16:39.977Z,22.50
2023-09-27T18:19:07.970Z,22.40
2023-09-27T18:21:35.865Z,22.30
2023-09-27T18:24:04.211Z,22.20
2023-09-27T18:26:32.149Z,22.10
2023-09-27T18:29:00.024Z,21.90
2023-09-27T18:31:28.259Z,21.90
2023-09-27T18:33:58.456Z,21.80
2023-09-27T18:36:26.485Z,21.60
2023-09-27T18:38:54.835Z,21.60
2023-09-27T18:41:22.701Z,21.50
2023-09-27T18:43:50.909Z,21.40
2023-09-27T18:46:18.852Z,21.30
2023-09-27T18:48:48.417Z,21.20
2023-09-27T18:51:23.043Z,21.10
2023-09-27T18:53:52.255Z,21.00
2023-09-27T18:56:20.767Z,20.90
2023-09-27T18:58:48.865Z,20.90
2023-09-27T19:01:17.157Z,20.80
2023-09-27T19:03:46.617Z,20.70
2023-09-27T19:06:15.485Z,20.70
2023-09-27T19:08:45.231Z,20.60
2023-09-27T19:11:18.757Z,20.50
2023-09-27T19:13:46.872Z,20.50
2023-09-27T19:16:14.953Z,20.40
2023-09-27T19:18:42.835Z,20.40
2023-09-27T19:21:11.383Z,20.30
2023-09-27T19:23:40.604Z,20.20
2023-09-27T19:26:10.453Z,20.10
2023-09-27T19:28:38.450Z,20.10
2023-09-27T19:31:09.178Z,20.00
2023-09-27T19:33:42.343Z,19.90
2023-09-27T19:36:14.121Z,19.90
2023-09-27T19:38:41.950Z,19.80
2023-09-27T19:41:11.957Z,19.70
2023-09-27T19:43:39.968Z,19.70
2023-09-27T19:46:07.901Z,19.60
2023-09-27T19:48:43.173Z,19.60
2023-09-27T19:51:11.818Z,19.50
2023-09-27T19:53:40.023Z,19.50
2023-09-27T19:56:07.931Z,19.40
2023-09-27T19:58:37.151Z,19.40
2023-09-27T20:01:05.072Z,19.40
2023-09-27T20:03:33.110Z,19.30
2023-09-27T20:06:00.992Z,19.30
2023-09-27T20:08:29.132Z,19.20
2023-09-27T20:10:57.182Z,19.20
2023-09-27T20:13:25.201Z,19.20
2023-09-27T20:15:54.422Z,19.10
2023-09-27T20:18:23.816Z,19.10
2023-09-27T20:20:51.722Z,19.10
2023-09-27T20:23:19.728Z,19.10
2023-09-27T20:25:48.034Z,19.00
2023-09-27T20:28:15.944Z,19.10
2023-09-27T20:30:43.839Z,19.00
2023-09-27T20:33:13.154Z,19.00
2023-09-27T20:35:41.214Z,19.00
2023-09-27T20:38:10.234Z,18.90
2023-09-27T20:40:38.332Z,18.90
2023-09-27T20:43:06.229Z,18.80
2023-09-27T20:45:34.144Z,18.80
2023-09-27T20:48:02.320Z,18.80
2023-09-27T20:50:31.643Z,18.70
2023-09-27T20:52:59.650Z,18.70
2023-09-27T20:55:27.577Z,18.70
2023-09-27T20:57:55.488Z,18.70
2023-09-27T21:00:24.975Z,18.70
2023-09-27T21:02:52.876Z,18.60
2023-09-27T21:05:20.757Z,18.60
2023-09-27T21:07:50.633Z,18.60
2023-09-27T21:10:18.541Z,18.50
2023-09-27T21:12:46.411Z,18.50
2023-09-27T21:15:14.257Z,18.40
2023-09-27T21:17:42.340Z,18.40
2023-09-27T21:20:11.497Z,18.40
2023-09-27T21:22:39.379Z,18.30
2023-09-27T21:25:09.423Z,18.30
2023-09-27T21:27:37.380Z,18.30
2023-09-27T21:30:05.835Z,18.20
2023-09-27T21:32:33.836Z,18.30
2023-09-27T21:35:02.046Z,18.20
2023-09-27T21:37:29.993Z,18.20
2023-09-27T21:39:58.667Z,18.10
2023-09-27T21:42:28.540Z,18.10
2023-09-27T21:44:56.409Z,18.10
2023-09-27T21:47:24.283Z,18.00
2023-09-27T21:49:52.273Z,18.00
2023-09-27T21:52:20.158Z,18.00
2023-09-27T21:54:47.973Z,18.00
2023-09-27T21:57:16.012Z,18.00
2023-09-27T21:59:45.278Z,18.00
2023-09-27T22:02:13.916Z,18.00
2023-09-27T22:04:41.802Z,17.90
2023-09-27T22:07:10.029Z,17.90
2023-09-27T22:09:39.666Z,17.90
2023-09-27T22:12:09.633Z,17.90
2023-09-27T22:14:47.797Z,17.90
2023-09-27T22:17:17.432Z,17.90
2023-09-27T22:19:45.435Z,17.80
2023-09-27T22:22:22.053Z,17.80
2023-09-27T22:24:50.693Z,17.80
2023-09-27T22:27:18.560Z,17.70
2023-09-27T22:29:46.500Z,17.70
2023-09-27T22:32:15.575Z,17.70
2023-09-27T22:34:45.428Z,17.70
2023-09-27T22:37:15.030Z,17.70
2023-09-27T22:39:44.496Z,17.70
2023-09-27T22:42:14.279Z,17.70
2023-09-27T22:44:43.505Z,17.60
2023-09-27T22:47:11.684Z,17.60
2023-09-27T22:49:41.191Z,17.60
2023-09-27T22:52:11.258Z,17.60
2023-09-27T22:54:39.562Z,17.50
2023-09-27T22:57:07.474Z,17.50
2023-09-27T22:59:38.982Z,17.50
2023-09-27T23:02:11.360Z,17.50
2023-09-27T23:04:39.455Z,17.50
2023-09-27T23:07:17.516Z,17.50
2023-09-27T23:09:48.150Z,17.40
2023-09-27T23:12:25.049Z,17.40
2023-09-27T23:15:11.069Z,17.40
2023-09-27T23:18:00.772Z,17.40
2023-09-27T23:20:32.066Z,17.40
2023-09-27T23:23:06.896Z,17.40
2023-09-27T23:25:39.838Z,17.40
2023-09-27T23:28:07.818Z,17.40
2023-09-27T23:30:34.801Z,17.40
2023-09-27T23:33:02.754Z,17.40
2023-09-27T23:35:32.239Z,17.40
2023-09-27T23:38:10.433Z,17.40
2023-09-27T23:40:42.378Z,17.40
2023-09-27T23:43:16.884Z,17.40
2023-09-27T23:45:46.356Z,17.40
2023-09-27T23:48:14.288Z,17.40
2023-09-27T23:50:42.785Z,17.40
2023-09-27T23:53:11.076Z,17.40
2023-09-27T23:55:42.867Z,17.40
2023-09-27T23:58:13.586Z,17.40
